East Laurinburg, North Carolina
Current Conditions -  °F | °C
As of 1:52 PM on Friday 31 Oct 2014 (Local Time) from KMEB Reporting Station
Clear Clear  
Wind Chill: 66°   Ceiling: Unl
Heat Index: 66°   Visibility: 10mi
Dew Point: 41°   Wind: 8mph
Humidity: 40%   Direction: 30°NNE
Pressure: 29.85"   Gusts: NA
Location:  34.7588°N, 79.4468°W
Report Text: KMEB 311752Z AUTO 03007KT 10SM CLR 19/05 A2985 RMK AO2 SLP105 T01890050 10189 20061 58029
Loading
Personal Weather Stations






























Interactive Weather Map
Tropical Storm Tracking
New forecast layout! Learn more

10-Day Weather Forecast

Advertisements
Track Severe Weather on mobile